AQA weather

Araraquara Airport
Araraquara, São Paulo, Brazil

Public forecast

Using degrees Celsius for public forecast. Weather courtesy of forecast.io.

Current aviation weather report (METAR) for Araraquara Airport

Report is more than 6 hours old.

Retrieved 2020/03/31 20:00 UTC (3 months ago):

SBAQ 312000Z /////KT 9999 SCT040 ///// Q1014

Closest aviation forecast (TAF) to Araraquara Airport

Closest forecast is Leite Lopes Airport, 45.2 nm (83.7 km) NNE. Retrieved 2020/07/12 12:21 UTC (0 seconds ago):

TAF TAF SBRP 121003Z 1212/1224 10006KT CAVOK TN22/1212Z TX30/1217Z BECMG 1213/1215 05006KT BECMG 1215/1217 35008KT BECMG 1221/1223 07002KT RMK PGM